createdAt,value
2019-05-11T00:01:10.441Z,98903.03
2019-05-11T00:03:37.882Z,98911.92
2019-05-11T00:06:05.319Z,98909.91
2019-05-11T00:08:33.087Z,98914.72
2019-05-11T00:11:00.649Z,98913.16
2019-05-11T00:13:28.105Z,98914.41
2019-05-11T00:15:55.620Z,98906.20
2019-05-11T00:18:23.145Z,98911.19
2019-05-11T00:20:50.600Z,98909.42
2019-05-11T00:23:18.068Z,98913.30
2019-05-11T00:25:45.516Z,98900.92
2019-05-11T00:28:13.004Z,98895.76
2019-05-11T00:30:40.498Z,98898.64
2019-05-11T00:33:07.987Z,98894.30
2019-05-11T00:35:35.448Z,98885.88
2019-05-11T00:38:02.919Z,98882.48
2019-05-11T00:40:30.365Z,98882.00
2019-05-11T00:42:57.843Z,98884.67
2019-05-11T00:45:25.289Z,98888.07
2019-05-11T00:47:52.751Z,98888.07
2019-05-11T00:50:36.652Z,98889.00
2019-05-11T00:52:48.830Z,98889.61
2019-05-11T00:55:16.386Z,98888.07
2019-05-11T00:57:43.859Z,98890.70
2019-05-11T01:00:11.289Z,98892.75
2019-05-11T01:02:38.766Z,98889.07
2019-05-11T01:05:06.206Z,98885.25
2019-05-11T01:07:33.717Z,98879.62
2019-05-11T01:10:02.242Z,98889.84
2019-05-11T01:12:29.731Z,98888.17
2019-05-11T01:14:57.151Z,98891.17
2019-05-11T01:17:24.612Z,98895.94
2019-05-11T01:19:52.040Z,98878.68
2019-05-11T01:22:19.488Z,98879.80
2019-05-11T01:24:46.946Z,98877.94
2019-05-11T01:27:14.417Z,98882.37
2019-05-11T01:29:41.894Z,98884.04
2019-05-11T01:32:09.336Z,98878.28
2019-05-11T01:34:36.861Z,98882.91
2019-05-11T01:37:04.353Z,98879.18
2019-05-11T01:39:31.838Z,98877.27
2019-05-11T01:41:59.311Z,98875.86
2019-05-11T01:44:26.778Z,98888.54
2019-05-11T01:46:54.223Z,98886.92
2019-05-11T01:49:21.705Z,98888.64
2019-05-11T01:51:49.184Z,98890.59
2019-05-11T01:54:16.702Z,98878.34
2019-05-11T01:56:44.174Z,98874.05
2019-05-11T01:59:11.655Z,98860.61
2019-05-11T02:01:39.156Z,98852.06
2019-05-11T02:04:06.664Z,98854.48
2019-05-11T02:06:34.142Z,98851.38
2019-05-11T02:09:01.641Z,98853.88
2019-05-11T02:11:29.213Z,98848.66
2019-05-11T02:13:56.679Z,98850.63
2019-05-11T02:16:24.128Z,98848.52
2019-05-11T02:18:51.610Z,98842.43
2019-05-11T02:21:19.743Z,98839.98
2019-05-11T02:23:47.205Z,98836.89
2019-05-11T02:26:14.658Z,98835.56
2019-05-11T02:28:42.094Z,98825.05
2019-05-11T02:31:10.345Z,98823.33
2019-05-11T02:33:37.775Z,98832.43
2019-05-11T02:36:05.247Z,98833.06
2019-05-11T02:38:32.691Z,98831.48
2019-05-11T02:41:00.165Z,98835.30
2019-05-11T02:43:27.635Z,98835.69
2019-05-11T02:45:55.083Z,98839.50
2019-05-11T02:48:22.569Z,98841.27
2019-05-11T02:50:50.343Z,98842.81
2019-05-11T02:53:17.809Z,98853.84
2019-05-11T02:55:45.271Z,98854.88
2019-05-11T02:58:12.743Z,98858.64
2019-05-11T03:00:41.048Z,98854.58
2019-05-11T03:03:08.566Z,98850.37
2019-05-11T03:05:36.055Z,98856.52
2019-05-11T03:08:03.512Z,98859.65
2019-05-11T03:10:30.959Z,98851.15
2019-05-11T03:12:58.435Z,98857.03
2019-05-11T03:15:25.914Z,98859.22
2019-05-11T03:17:53.370Z,98867.08
2019-05-11T03:20:20.904Z,98865.96
2019-05-11T03:22:48.335Z,98872.92
2019-05-11T03:25:15.787Z,98880.70
2019-05-11T03:27:43.293Z,98878.67
2019-05-11T03:30:10.752Z,98879.57
2019-05-11T03:32:38.209Z,98885.97
2019-05-11T03:35:05.672Z,98886.92
2019-05-11T03:37:33.149Z,98891.22
2019-05-11T03:40:00.616Z,98887.73
2019-05-11T03:42:28.040Z,98881.77
2019-05-11T03:44:55.473Z,98887.34
2019-05-11T03:47:22.927Z,98888.26
2019-05-11T03:49:51.433Z,98889.66
2019-05-11T03:52:18.892Z,98892.94
2019-05-11T03:54:46.324Z,98889.50
2019-05-11T03:57:13.787Z,98885.98
2019-05-11T03:59:41.215Z,98892.08
2019-05-11T04:02:08.695Z,98886.83
2019-05-11T04:04:36.142Z,98891.60
2019-05-11T04:07:03.600Z,98887.64
2019-05-11T04:09:31.083Z,98884.98
2019-05-11T04:11:58.516Z,98887.64
2019-05-11T04:14:25.979Z,98886.73
2019-05-11T04:16:53.449Z,98889.19
2019-05-11T04:19:21.982Z,98893.73
2019-05-11T04:21:49.441Z,98891.16
2019-05-11T04:24:16.875Z,98888.89
2019-05-11T04:26:44.322Z,98895.84
2019-05-11T04:29:11.777Z,98890.09
2019-05-11T04:31:39.201Z,98894.08
2019-05-11T04:34:06.670Z,98882.58
2019-05-11T04:36:34.116Z,98875.37
2019-05-11T04:39:01.581Z,98874.12
2019-05-11T04:41:29.044Z,98874.67
2019-05-11T04:43:56.544Z,98874.84
2019-05-11T04:46:23.977Z,98883.13
2019-05-11T04:48:51.519Z,98881.71
2019-05-11T04:51:18.988Z,98878.14
2019-05-11T04:53:46.430Z,98880.03
2019-05-11T04:56:13.907Z,98882.48
2019-05-11T04:58:41.370Z,98882.95
2019-05-11T05:01:08.820Z,98882.91
2019-05-11T05:03:40.968Z,98874.02
2019-05-11T05:06:22.070Z,98881.41
2019-05-11T05:08:31.297Z,98881.31
2019-05-11T05:11:00.710Z,98881.92
2019-05-11T05:13:29.273Z,98881.92
2019-05-11T05:15:53.770Z,98885.22
2019-05-11T05:18:21.330Z,98881.28
2019-05-11T05:20:48.922Z,98885.27
2019-05-11T05:23:16.366Z,98885.52
2019-05-11T05:25:43.828Z,98892.73
2019-05-11T05:28:11.282Z,98886.72
2019-05-11T05:30:38.730Z,98892.17
2019-05-11T05:33:06.202Z,98887.75
2019-05-11T05:35:33.658Z,98883.33
2019-05-11T05:38:01.119Z,98883.05
2019-05-11T05:40:28.548Z,98895.31
2019-05-11T05:42:56.016Z,98893.48
2019-05-11T05:45:23.606Z,98891.16
2019-05-11T05:47:51.084Z,98892.75
2019-05-11T05:50:18.542Z,98895.89
2019-05-11T05:52:46.009Z,98896.28
2019-05-11T05:55:13.486Z,98887.66
2019-05-11T05:57:40.952Z,98896.06
2019-05-11T06:00:08.410Z,98896.84
2019-05-11T06:02:35.876Z,98903.41
2019-05-11T06:05:03.331Z,98895.47
2019-05-11T06:07:30.766Z,98892.59
2019-05-11T06:09:58.223Z,98896.97
2019-05-11T06:12:25.647Z,98900.80
2019-05-11T06:14:54.171Z,98901.52
2019-05-11T06:17:21.611Z,98902.08
2019-05-11T06:19:49.054Z,98897.28
2019-05-11T06:22:16.494Z,98904.27
2019-05-11T06:24:43.911Z,98898.39
2019-05-11T06:27:11.392Z,98899.54
2019-05-11T06:29:38.870Z,98899.03
2019-05-11T06:32:06.301Z,98904.14
2019-05-11T06:34:33.766Z,98906.16
2019-05-11T06:37:01.245Z,98905.89
2019-05-11T06:39:28.685Z,98909.20
2019-05-11T06:41:56.182Z,98913.89
2019-05-11T06:44:24.687Z,98911.91
2019-05-11T06:46:52.150Z,98911.11
2019-05-11T06:49:19.615Z,98918.41
2019-05-11T06:51:47.044Z,98918.45
2019-05-11T06:54:14.503Z,98912.30
2019-05-11T06:56:41.944Z,98917.94
2019-05-11T06:59:09.436Z,98912.61
2019-05-11T07:01:36.887Z,98919.83
2019-05-11T07:04:04.327Z,98913.38
2019-05-11T07:06:31.803Z,98915.44
2019-05-11T07:08:59.243Z,98914.38
2019-05-11T07:11:26.763Z,98921.38
2019-05-11T07:13:55.279Z,98921.38
2019-05-11T07:16:22.789Z,98922.92
2019-05-11T07:18:50.232Z,98925.02
2019-05-11T07:21:17.664Z,98929.02
2019-05-11T07:23:45.119Z,98930.13
2019-05-11T07:26:12.559Z,98931.03
2019-05-11T07:28:40.000Z,98933.44
2019-05-11T07:31:07.508Z,98935.50
2019-05-11T07:33:34.942Z,98939.28
2019-05-11T07:36:02.385Z,98942.80
2019-05-11T07:38:29.912Z,98943.67
2019-05-11T07:40:58.220Z,98949.37
2019-05-11T07:43:25.850Z,98953.50
2019-05-11T07:45:53.304Z,98945.42
2019-05-11T07:48:21.341Z,98945.91
2019-05-11T07:50:48.768Z,98947.77
2019-05-11T07:53:18.426Z,98950.30
2019-05-11T07:55:43.809Z,98958.74
2019-05-11T07:58:11.327Z,98958.74
2019-05-11T08:00:40.036Z,98949.77
2019-05-11T08:03:06.214Z,98947.31
2019-05-11T08:05:33.670Z,98949.77
2019-05-11T08:08:01.110Z,98954.31
2019-05-11T08:10:28.568Z,98955.56
2019-05-11T08:12:58.662Z,98966.22
2019-05-11T08:15:23.805Z,98965.92
2019-05-11T08:17:51.278Z,98968.75
2019-05-11T08:20:18.919Z,98965.05
2019-05-11T08:22:48.185Z,98967.63
2019-05-11T08:25:13.668Z,98963.69
2019-05-11T08:27:41.115Z,98964.46
2019-05-11T08:30:09.461Z,98972.11
2019-05-11T08:32:38.658Z,98981.83
2019-05-11T08:35:04.411Z,98978.45
2019-05-11T08:37:31.856Z,98985.27
2019-05-11T08:39:59.305Z,98986.08
2019-05-11T08:42:28.871Z,98992.64
2019-05-11T08:44:54.331Z,98992.45
2019-05-11T08:47:21.787Z,98997.06
2019-05-11T08:49:49.248Z,99001.27
2019-05-11T08:52:18.694Z,99010.81
2019-05-11T08:54:44.204Z,99009.80
2019-05-11T08:57:11.667Z,99016.55
2019-05-11T08:59:39.107Z,99022.44
2019-05-11T09:02:08.099Z,99023.45
2019-05-11T09:04:34.001Z,99024.57
2019-05-11T09:07:01.493Z,99028.87
2019-05-11T09:09:28.946Z,99032.48
2019-05-11T09:11:58.895Z,99035.18
2019-05-11T09:14:25.006Z,99044.53
2019-05-11T09:16:52.457Z,99042.09
2019-05-11T09:19:19.891Z,99045.75
2019-05-11T09:21:48.176Z,99049.48
2019-05-11T09:24:14.824Z,99052.79
2019-05-11T09:26:42.272Z,99057.95
2019-05-11T09:29:09.724Z,99055.32
2019-05-11T09:31:38.150Z,99064.30
2019-05-11T09:34:04.620Z,99072.48
2019-05-11T09:36:32.138Z,99077.11
2019-05-11T09:38:59.576Z,99079.88
2019-05-11T09:41:28.944Z,99083.80
2019-05-11T09:43:55.508Z,99091.16
2019-05-11T09:46:22.970Z,99093.26
2019-05-11T09:48:50.438Z,99090.66
2019-05-11T09:51:18.604Z,99092.36
2019-05-11T09:53:45.379Z,99096.70
2019-05-11T09:56:12.820Z,99105.55
2019-05-11T09:58:40.287Z,99097.26
2019-05-11T10:01:08.817Z,99108.63
2019-05-11T10:03:35.224Z,99110.88
2019-05-11T10:06:02.701Z,99112.62
2019-05-11T10:08:30.174Z,99114.44
2019-05-11T10:10:58.617Z,99115.42
2019-05-11T10:13:27.875Z,99109.95
2019-05-11T10:16:04.508Z,99115.30
2019-05-11T10:18:24.225Z,99122.87
2019-05-11T10:20:48.890Z,99122.64
2019-05-11T10:23:18.436Z,99133.78
2019-05-11T10:25:43.913Z,99126.16
2019-05-11T10:28:11.404Z,99135.74
2019-05-11T10:30:38.867Z,99136.23
2019-05-11T10:33:08.259Z,99143.12
2019-05-11T10:35:33.833Z,99140.89
2019-05-11T10:38:01.281Z,99148.94
2019-05-11T10:40:29.167Z,99147.31
2019-05-11T10:42:58.761Z,99151.29
2019-05-11T10:45:24.107Z,99150.50
2019-05-11T10:47:54.568Z,99159.20
2019-05-11T10:50:19.059Z,99152.24
2019-05-11T10:52:48.372Z,99165.84
2019-05-11T10:55:14.028Z,99167.30
2019-05-11T10:57:41.474Z,99166.19
2019-05-11T11:00:08.905Z,99163.44
2019-05-11T11:02:38.465Z,99171.81
2019-05-11T11:05:03.865Z,99177.33
2019-05-11T11:07:31.304Z,99180.34
2019-05-11T11:09:59.722Z,99182.19
2019-05-11T11:12:27.946Z,99177.12
2019-05-11T11:14:54.642Z,99190.53
2019-05-11T11:17:22.069Z,99194.14
2019-05-11T11:19:49.512Z,99199.66
2019-05-11T11:22:36.038Z,99200.34
2019-05-11T11:24:44.465Z,99199.52
2019-05-11T11:27:11.921Z,99200.86
2019-05-11T11:29:39.376Z,99210.59
2019-05-11T11:32:08.024Z,99218.49
2019-05-11T11:34:34.334Z,99218.55
2019-05-11T11:37:01.816Z,99224.01
2019-05-11T11:39:30.263Z,99222.89
2019-05-11T11:41:58.576Z,99225.73
2019-05-11T11:44:25.187Z,99227.37
2019-05-11T11:46:55.312Z,99229.48
2019-05-11T11:49:20.196Z,99235.75
2019-05-11T11:51:48.471Z,99228.92
2019-05-11T11:54:15.116Z,99237.91
2019-05-11T11:56:42.576Z,99241.56
2019-05-11T11:59:10.009Z,99242.08
2019-05-11T12:01:38.516Z,99240.92
2019-05-11T12:04:04.930Z,99248.52
2019-05-11T12:06:32.352Z,99254.97
2019-05-11T12:09:00.831Z,99251.45
2019-05-11T12:11:28.273Z,99260.88
2019-05-11T12:13:57.915Z,99268.75
2019-05-11T12:16:23.198Z,99274.33
2019-05-11T12:18:50.646Z,99277.31
2019-05-11T12:21:18.685Z,99286.22
2019-05-11T12:23:48.285Z,99287.97
2019-05-11T12:26:13.033Z,99290.30
2019-05-11T12:28:40.475Z,99297.86
2019-05-11T12:31:08.755Z,99299.48
2019-05-11T12:33:35.419Z,99302.01
2019-05-11T12:36:02.867Z,99310.84
2019-05-11T12:38:31.312Z,99314.34
2019-05-11T12:40:58.776Z,99319.69
2019-05-11T12:43:27.709Z,99323.05
2019-05-11T12:45:53.671Z,99329.25
2019-05-11T12:48:21.410Z,99331.68
2019-05-11T12:50:48.848Z,99337.16
2019-05-11T12:53:18.428Z,99344.12
2019-05-11T12:55:43.773Z,99351.14
2019-05-11T12:58:11.225Z,99345.37
2019-05-11T13:00:39.118Z,99347.97
2019-05-11T13:03:08.071Z,99357.88
2019-05-11T13:05:33.629Z,99362.56
2019-05-11T13:08:01.800Z,99370.63
2019-05-11T13:10:29.311Z,99365.94
2019-05-11T13:12:58.167Z,99378.00
2019-05-11T13:15:24.211Z,99385.17
2019-05-11T13:17:51.673Z,99378.78
2019-05-11T13:20:19.091Z,99393.51
2019-05-11T13:22:48.630Z,99395.12
2019-05-11T13:25:13.982Z,99403.64
2019-05-11T13:27:41.428Z,99406.92
2019-05-11T13:30:08.847Z,99405.63
2019-05-11T13:32:38.499Z,99416.11
2019-05-11T13:35:03.756Z,99418.96
2019-05-11T13:37:31.174Z,99417.07
2019-05-11T13:39:58.616Z,99422.82
2019-05-11T13:42:27.737Z,99419.96
2019-05-11T13:44:53.515Z,99432.09
2019-05-11T13:47:20.946Z,99427.68
2019-05-11T13:49:48.395Z,99431.11
2019-05-11T13:52:17.492Z,99432.79
2019-05-11T13:54:43.309Z,99439.25
2019-05-11T13:57:10.723Z,99445.70
2019-05-11T13:59:39.313Z,99446.43
2019-05-11T14:02:10.676Z,99456.45
2019-05-11T14:04:34.213Z,99457.43
2019-05-11T14:07:01.687Z,99462.33
2019-05-11T14:09:29.142Z,99464.04
2019-05-11T14:11:58.378Z,99473.88
2019-05-11T14:14:24.119Z,99470.56
2019-05-11T14:16:51.558Z,99469.98
2019-05-11T14:19:19.021Z,99472.08
2019-05-11T14:21:48.780Z,99469.84
2019-05-11T14:24:14.165Z,99477.19
2019-05-11T14:26:41.626Z,99475.42
2019-05-11T14:29:09.072Z,99487.96
2019-05-11T14:31:38.603Z,99489.30
2019-05-11T14:34:03.978Z,99491.55
2019-05-11T14:36:31.451Z,99495.34
2019-05-11T14:38:58.894Z,99498.09
2019-05-11T14:41:28.422Z,99504.34
2019-05-11T14:43:53.785Z,99508.80
2019-05-11T14:46:21.401Z,99516.42
2019-05-11T14:48:48.827Z,99517.99
2019-05-11T14:51:17.982Z,99518.85
2019-05-11T14:53:43.764Z,99529.97
2019-05-11T14:56:11.210Z,99527.03
2019-05-11T14:58:38.798Z,99531.77
2019-05-11T15:01:08.623Z,99539.20
2019-05-11T15:03:33.913Z,99542.21
2019-05-11T15:06:01.396Z,99540.13
2019-05-11T15:08:28.883Z,99553.11
2019-05-11T15:10:57.648Z,99552.72
2019-05-11T15:13:23.787Z,99565.75
2019-05-11T15:15:51.232Z,99569.63
2019-05-11T15:18:18.716Z,99567.55
2019-05-11T15:20:47.956Z,99567.90
2019-05-11T15:23:13.605Z,99574.44
2019-05-11T15:25:41.044Z,99576.13
2019-05-11T15:28:08.871Z,99583.37
2019-05-11T15:30:37.835Z,99587.27
2019-05-11T15:33:04.470Z,99590.07
2019-05-11T15:35:31.909Z,99596.14
2019-05-11T15:37:59.367Z,99603.09
2019-05-11T15:40:27.937Z,99602.23
2019-05-11T15:42:54.248Z,99606.19
2019-05-11T15:45:21.694Z,99604.84
2019-05-11T15:47:49.235Z,99604.41
2019-05-11T15:50:18.698Z,99611.79
2019-05-11T15:52:44.137Z,99609.62
2019-05-11T15:55:11.693Z,99605.14
2019-05-11T15:57:39.165Z,99616.55
2019-05-11T16:00:08.830Z,99620.30
2019-05-11T16:02:35.092Z,99623.37
2019-05-11T16:05:02.537Z,99626.56
2019-05-11T16:07:29.996Z,99631.56
2019-05-11T16:09:57.824Z,99639.84
2019-05-11T16:12:25.206Z,99645.03
2019-05-11T16:14:52.663Z,99652.57
2019-05-11T16:17:20.235Z,99657.16
2019-05-11T16:19:49.060Z,99665.63
2019-05-11T16:22:17.965Z,99664.79
2019-05-11T16:24:42.678Z,99673.50
2019-05-11T16:27:10.162Z,99668.45
2019-05-11T16:29:38.419Z,99674.68
2019-05-11T16:32:08.227Z,99681.59
2019-05-11T16:34:33.294Z,99681.36
2019-05-11T16:37:00.722Z,99686.55
2019-05-11T16:39:28.167Z,99697.40
2019-05-11T16:41:57.685Z,99696.85
2019-05-11T16:44:23.110Z,99702.35
2019-05-11T16:46:50.931Z,99711.41
2019-05-11T16:49:26.163Z,99711.22
2019-05-11T16:51:45.502Z,99714.08
2019-05-11T16:54:12.946Z,99711.67
2019-05-11T16:56:40.398Z,99718.21
2019-05-11T16:59:08.337Z,99723.48
2019-05-11T17:01:37.716Z,99723.25
2019-05-11T17:04:02.861Z,99724.19
2019-05-11T17:06:31.925Z,99730.58
2019-05-11T17:08:58.072Z,99733.55
2019-05-11T17:11:25.232Z,99739.53
2019-05-11T17:13:52.690Z,99739.06
2019-05-11T17:16:20.153Z,99742.73
2019-05-11T17:18:48.335Z,99747.22
2019-05-11T17:21:15.126Z,99748.91
2019-05-11T17:23:42.595Z,99752.30
2019-05-11T17:26:10.041Z,99754.53
2019-05-11T17:28:38.410Z,99764.33
2019-05-11T17:31:05.055Z,99766.23
2019-05-11T17:33:32.519Z,99781.56
2019-05-11T17:35:59.987Z,99782.41
2019-05-11T17:38:28.038Z,99782.00
2019-05-11T17:40:54.867Z,99782.98
2019-05-11T17:43:22.296Z,99789.86
2019-05-11T17:45:49.747Z,99792.69
2019-05-11T17:48:17.803Z,99800.48
2019-05-11T17:50:44.663Z,99809.38
2019-05-11T17:53:12.146Z,99811.55
2019-05-11T17:55:39.611Z,99815.61
2019-05-11T17:58:08.683Z,99819.56
2019-05-11T18:00:35.025Z,99821.52
2019-05-11T18:03:02.464Z,99826.02
2019-05-11T18:05:29.928Z,99825.13
2019-05-11T18:07:58.003Z,99827.51
2019-05-11T18:10:24.839Z,99835.12
2019-05-11T18:12:52.285Z,99843.66
2019-05-11T18:15:19.727Z,99843.91
2019-05-11T18:17:48.483Z,99850.58
2019-05-11T18:20:17.952Z,99850.69
2019-05-11T18:22:42.115Z,99852.78
2019-05-11T18:25:09.565Z,99859.88
2019-05-11T18:27:38.620Z,99864.84
2019-05-11T18:30:08.546Z,99863.97
2019-05-11T18:32:33.821Z,99874.57
2019-05-11T18:35:01.263Z,99869.98
2019-05-11T18:37:28.693Z,99883.98
2019-05-11T18:39:58.461Z,99882.96
2019-05-11T18:42:23.643Z,99893.66
2019-05-11T18:44:51.090Z,99896.38
2019-05-11T18:47:18.556Z,99900.39
2019-05-11T18:49:48.315Z,99908.37
2019-05-11T18:52:13.467Z,99912.50
2019-05-11T18:54:40.927Z,99923.86
2019-05-11T18:57:08.534Z,99923.85
2019-05-11T18:59:37.883Z,99933.77
2019-05-11T19:02:03.458Z,99944.60
2019-05-11T19:04:30.887Z,99945.75
2019-05-11T19:07:12.803Z,99948.44
2019-05-11T19:09:25.852Z,99952.16
2019-05-11T19:11:53.304Z,99959.63
2019-05-11T19:14:21.504Z,99974.34
2019-05-11T19:16:49.217Z,99972.68
2019-05-11T19:19:18.334Z,99971.98
2019-05-11T19:21:43.911Z,99982.40
2019-05-11T19:24:11.331Z,99985.81
2019-05-11T19:26:39.143Z,99995.70
2019-05-11T19:29:08.770Z,100002.51
2019-05-11T19:31:34.076Z,100007.42
2019-05-11T19:34:01.532Z,100016.72
2019-05-11T19:36:28.976Z,100020.69
2019-05-11T19:38:58.353Z,100027.54
2019-05-11T19:41:23.893Z,100037.55
2019-05-11T19:43:51.343Z,100042.94
2019-05-11T19:46:18.803Z,100052.77
2019-05-11T19:48:47.521Z,100058.45
2019-05-11T19:51:13.695Z,100066.75
2019-05-11T19:53:41.171Z,100075.59
2019-05-11T19:56:08.627Z,100079.59
2019-05-11T19:58:38.058Z,100097.45
2019-05-11T20:01:03.564Z,100105.52
2019-05-11T20:03:31.011Z,100108.85
2019-05-11T20:05:58.446Z,100111.05
2019-05-11T20:08:25.891Z,100119.88
2019-05-11T20:10:53.357Z,100127.08
2019-05-11T20:13:20.815Z,100129.91
2019-05-11T20:15:48.563Z,100137.20
2019-05-11T20:18:18.199Z,100142.40
2019-05-11T20:20:43.199Z,100145.03
2019-05-11T20:23:10.660Z,100148.80
2019-05-11T20:25:38.172Z,100150.70
2019-05-11T20:28:05.581Z,100157.91
2019-05-11T20:30:33.029Z,100160.65
2019-05-11T20:33:00.505Z,100162.44
2019-05-11T20:35:28.117Z,100169.22
2019-05-11T20:37:57.623Z,100170.97
2019-05-11T20:40:23.008Z,100178.78
2019-05-11T20:42:50.483Z,100187.71
2019-05-11T20:45:18.454Z,100189.59
2019-05-11T20:47:45.409Z,100199.22
2019-05-11T20:50:12.858Z,100203.64
2019-05-11T20:52:40.664Z,100203.56
2019-05-11T20:55:08.936Z,100214.19
2019-05-11T20:57:35.590Z,100210.75
2019-05-11T21:00:03.019Z,100219.19
2019-05-11T21:02:30.492Z,100214.68
2019-05-11T21:04:58.696Z,100227.58
2019-05-11T21:07:27.913Z,100229.89
2019-05-11T21:09:53.307Z,100235.67
2019-05-11T21:12:21.494Z,100237.41
2019-05-11T21:14:48.978Z,100243.15
2019-05-11T21:17:18.134Z,100253.80
2019-05-11T21:19:43.886Z,100256.84
2019-05-11T21:22:11.364Z,100259.38
2019-05-11T21:24:38.800Z,100263.23
2019-05-11T21:27:06.254Z,100257.52
2019-05-11T21:29:33.721Z,100259.09
2019-05-11T21:32:02.258Z,100259.16
2019-05-11T21:34:29.692Z,100266.60
2019-05-11T21:53:42.848Z,100301.52
2019-05-11T21:56:10.330Z,100303.45
2019-05-11T21:58:37.893Z,100307.07
2019-05-11T22:01:05.280Z,100312.06
2019-05-11T22:03:32.727Z,100317.41
2019-05-11T22:06:00.179Z,100316.38
2019-05-11T22:08:28.347Z,100319.02
2019-05-11T22:10:55.146Z,100322.88
2019-05-11T22:13:22.571Z,100334.97
2019-05-11T22:15:50.041Z,100343.20
2019-05-11T22:18:30.533Z,100343.03
2019-05-11T22:20:44.943Z,100345.14
2019-05-11T22:23:12.389Z,100338.57
2019-05-11T22:25:39.870Z,100340.86
2019-05-11T22:28:08.383Z,100342.88
2019-05-11T22:30:34.820Z,100340.53
2019-05-11T22:33:02.267Z,100341.26
2019-05-11T22:35:29.734Z,100351.08
2019-05-11T22:37:57.801Z,100349.03
2019-05-11T22:40:24.888Z,100355.48
2019-05-11T22:42:52.359Z,100355.84
2019-05-11T22:45:19.830Z,100371.41
2019-05-11T22:47:48.112Z,100354.72
2019-05-11T22:50:14.803Z,100367.62
2019-05-11T22:52:42.231Z,100374.09
2019-05-11T22:55:12.127Z,100368.15
2019-05-11T22:57:38.046Z,100373.34
2019-05-11T23:00:08.159Z,100381.61
2019-05-11T23:02:33.870Z,100383.20
2019-05-11T23:05:01.491Z,100390.89
2019-05-11T23:07:28.920Z,100389.55
2019-05-11T23:09:57.624Z,100394.59
2019-05-11T23:12:23.816Z,100395.77
2019-05-11T23:14:51.267Z,100406.09
2019-05-11T23:17:18.736Z,100407.86
2019-05-11T23:19:48.589Z,100413.62
2019-05-11T23:22:13.648Z,100411.67
2019-05-11T23:24:41.096Z,100415.45
2019-05-11T23:27:08.530Z,100417.34
2019-05-11T23:29:38.225Z,100427.30
2019-05-11T23:32:03.484Z,100432.69
2019-05-11T23:34:30.942Z,100432.09
2019-05-11T23:36:59.112Z,100431.16
2019-05-11T23:39:28.135Z,100438.59
2019-05-11T23:41:53.350Z,100450.08
2019-05-11T23:44:20.813Z,100448.73
2019-05-11T23:46:48.286Z,100449.33
2019-05-11T23:49:17.775Z,100451.09
2019-05-11T23:51:43.311Z,100449.72
2019-05-11T23:54:10.765Z,100454.73
2019-05-11T23:56:38.639Z,100451.28
2019-05-11T23:59:08.088Z,100453.19
